createdAt,value
2023-03-28T00:01:42.579Z,6.03
2023-03-28T00:04:12.919Z,5.60
2023-03-28T00:06:45.706Z,5.30
2023-03-28T00:09:17.035Z,3.87
2023-03-28T00:11:46.035Z,4.80
2023-03-28T00:14:15.780Z,7.27
2023-03-28T00:16:46.954Z,5.30
2023-03-28T00:19:17.294Z,4.93
2023-03-28T00:21:48.365Z,5.70
2023-03-28T00:24:21.571Z,6.13
2023-03-28T00:26:54.643Z,8.10
2023-03-28T00:29:26.249Z,4.83
2023-03-28T00:31:55.095Z,4.37
2023-03-28T00:34:23.692Z,7.07
2023-03-28T00:36:54.084Z,5.27
2023-03-28T00:39:26.563Z,5.47
2023-03-28T00:41:55.891Z,4.80
2023-03-28T00:44:48.651Z,4.57
2023-03-28T00:47:30.859Z,5.60
2023-03-28T00:50:05.476Z,5.90
2023-03-28T00:52:40.071Z,3.90
2023-03-28T00:55:43.896Z,3.83
2023-03-28T00:58:17.246Z,4.53
2023-03-28T01:00:47.706Z,8.33
2023-03-28T01:03:19.050Z,4.27
2023-03-28T01:05:48.882Z,4.97
2023-03-28T01:08:21.608Z,4.93
2023-03-28T01:10:52.050Z,6.90
2023-03-28T01:13:26.195Z,5.07
2023-03-28T01:15:55.511Z,5.90
2023-03-28T01:18:24.734Z,6.53
2023-03-28T01:21:36.580Z,4.50
2023-03-28T01:24:27.349Z,7.70
2023-03-28T01:27:00.171Z,6.20
2023-03-28T01:30:12.449Z,4.30
2023-03-28T01:33:46.056Z,5.43
2023-03-28T01:36:42.550Z,5.93
2023-03-28T01:39:17.263Z,7.63
2023-03-28T01:41:55.272Z,5.47
2023-03-28T01:44:33.946Z,7.20
2023-03-28T01:47:08.917Z,8.20
2023-03-28T01:49:47.471Z,6.23
2023-03-28T01:52:21.914Z,6.63
2023-03-28T01:54:58.398Z,8.33
2023-03-28T01:57:34.088Z,6.87
2023-03-28T02:00:12.844Z,7.93
2023-03-28T02:03:05.079Z,6.60
2023-03-28T02:05:41.274Z,6.03
2023-03-28T02:08:17.575Z,8.43
2023-03-28T02:11:06.360Z,8.40
2023-03-28T02:13:52.537Z,10.00
2023-03-28T02:16:42.788Z,7.00
2023-03-28T02:19:48.654Z,8.13
2023-03-28T02:22:32.648Z,8.03
2023-03-28T02:25:03.165Z,8.13
2023-03-28T02:27:55.738Z,10.07
2023-03-28T02:30:43.029Z,8.80
2023-03-28T02:33:37.887Z,9.57
2023-03-28T02:36:20.130Z,12.40
2023-03-28T02:38:59.257Z,10.63
2023-03-28T02:41:39.192Z,11.03
2023-03-28T02:44:20.942Z,10.23
2023-03-28T02:47:01.502Z,9.50
2023-03-28T02:49:50.552Z,10.60
2023-03-28T02:52:35.398Z,12.47
2023-03-28T02:55:15.038Z,9.43
2023-03-28T02:58:02.995Z,10.00
2023-03-28T03:00:32.071Z,11.10
2023-03-28T03:03:04.064Z,9.90
2023-03-28T03:05:32.759Z,11.97
2023-03-28T03:08:01.767Z,12.53
2023-03-28T03:10:30.652Z,10.97
2023-03-28T03:13:01.158Z,11.20
2023-03-28T03:15:30.984Z,13.47
2023-03-28T03:18:00.702Z,13.20
2023-03-28T03:20:33.788Z,11.50
2023-03-28T03:23:04.474Z,12.73
2023-03-28T03:25:36.096Z,11.77
2023-03-28T03:28:35.365Z,10.53
2023-03-28T03:31:06.562Z,9.53
2023-03-28T03:34:13.640Z,11.17
2023-03-28T03:36:47.286Z,11.63
2023-03-28T03:39:16.007Z,12.00
2023-03-28T03:41:44.701Z,11.60
2023-03-28T03:44:15.064Z,13.83
2023-03-28T03:46:43.705Z,14.47
2023-03-28T03:49:12.505Z,10.77
2023-03-28T03:51:41.210Z,11.03
2023-03-28T03:54:09.963Z,14.17
2023-03-28T03:56:41.239Z,11.80
2023-03-28T03:59:10.042Z,12.67
2023-03-28T04:01:44.158Z,12.13
2023-03-28T04:04:31.606Z,12.40
2023-03-28T04:07:35.874Z,12.67
2023-03-28T04:10:06.454Z,16.83
2023-03-28T04:12:38.273Z,13.57
2023-03-28T04:15:08.927Z,15.90
2023-03-28T04:17:41.594Z,11.93
2023-03-28T04:20:21.108Z,10.77
2023-03-28T04:23:06.091Z,11.67
2023-03-28T04:25:36.333Z,10.90
2023-03-28T04:28:13.005Z,13.17
2023-03-28T04:30:59.444Z,14.33
2023-03-28T04:33:45.432Z,16.47
2023-03-28T04:36:18.468Z,12.27
2023-03-28T04:38:53.557Z,11.90
2023-03-28T04:41:46.527Z,15.57
2023-03-28T04:44:21.878Z,13.80
2023-03-28T04:46:58.421Z,13.40
2023-03-28T04:49:33.078Z,12.70
2023-03-28T04:52:01.939Z,12.43
2023-03-28T04:54:31.149Z,13.27
2023-03-28T04:57:06.880Z,11.93
2023-03-28T04:59:44.302Z,15.67
2023-03-28T05:02:19.910Z,14.87
2023-03-28T05:05:08.220Z,14.80
2023-03-28T05:07:37.611Z,14.10
2023-03-28T05:10:08.558Z,13.80
2023-03-28T05:12:41.169Z,14.90
2023-03-28T05:15:10.707Z,13.37
2023-03-28T05:17:50.253Z,15.30
2023-03-28T05:20:31.312Z,13.00
2023-03-28T05:23:02.839Z,10.90
2023-03-28T05:25:32.414Z,11.37
2023-03-28T05:28:01.755Z,12.40
2023-03-28T05:30:31.638Z,10.57
2023-03-28T05:33:01.343Z,10.23
2023-03-28T05:35:33.056Z,9.57
2023-03-28T05:38:02.595Z,10.57
2023-03-28T05:40:31.876Z,10.27
2023-03-28T05:43:01.789Z,12.27
2023-03-28T05:45:30.971Z,10.70
2023-03-28T05:48:08.790Z,10.53
2023-03-28T05:50:40.019Z,9.40
2023-03-28T05:53:09.196Z,11.33
2023-03-28T05:55:38.176Z,11.87
2023-03-28T05:58:07.953Z,10.30
2023-03-28T06:00:42.885Z,7.90
2023-03-28T06:03:16.425Z,7.67
2023-03-28T06:05:48.278Z,9.90
2023-03-28T06:08:22.882Z,13.50
2023-03-28T06:10:52.049Z,7.83
2023-03-28T06:13:24.883Z,10.13
2023-03-28T06:15:53.811Z,9.80
2023-03-28T06:18:30.754Z,10.37
2023-03-28T06:21:01.155Z,9.43
2023-03-28T06:23:30.474Z,8.90
2023-03-28T06:25:59.353Z,9.67
2023-03-28T06:28:34.318Z,10.90
2023-03-28T06:31:23.283Z,9.63
2023-03-28T06:33:52.269Z,6.83
2023-03-28T06:36:24.747Z,9.40
2023-03-28T06:38:53.745Z,10.47
2023-03-28T06:41:25.143Z,9.20
2023-03-28T06:43:53.999Z,17.83
2023-03-28T06:46:51.607Z,9.80
2023-03-28T06:49:21.493Z,10.67
2023-03-28T06:52:11.532Z,14.77
2023-03-28T06:54:41.130Z,9.83
2023-03-28T06:57:09.981Z,10.90
2023-03-28T06:59:45.830Z,12.50
2023-03-28T07:02:20.929Z,9.70
2023-03-28T07:04:50.521Z,9.93
2023-03-28T07:07:22.444Z,10.17
2023-03-28T07:09:52.869Z,7.97
2023-03-28T07:12:22.276Z,7.97
2023-03-28T07:14:51.500Z,12.03
2023-03-28T07:17:20.852Z,10.53
2023-03-28T07:19:51.272Z,10.63
2023-03-28T07:22:21.559Z,7.60
2023-03-28T07:24:50.379Z,11.00
2023-03-28T07:27:19.221Z,9.93
2023-03-28T07:29:48.260Z,10.70
2023-03-28T07:32:17.594Z,11.07
2023-03-28T07:34:47.817Z,8.97
2023-03-28T07:37:27.683Z,22.23
2023-03-28T07:40:09.771Z,8.27
2023-03-28T07:42:40.899Z,7.60
2023-03-28T07:45:13.776Z,8.33
2023-03-28T07:47:42.546Z,7.20
2023-03-28T07:50:11.489Z,10.97
2023-03-28T07:52:45.742Z,9.03
2023-03-28T07:55:17.304Z,7.37
2023-03-28T07:57:50.562Z,13.23
2023-03-28T08:00:37.637Z,11.50
2023-03-28T08:03:24.962Z,8.60
2023-03-28T08:05:54.005Z,6.63
2023-03-28T08:08:25.975Z,7.10
2023-03-28T08:11:09.324Z,7.53
2023-03-28T08:13:38.139Z,8.57
2023-03-28T08:16:13.360Z,7.63
2023-03-28T08:18:42.093Z,11.67
2023-03-28T08:21:10.961Z,7.07
2023-03-28T08:23:41.091Z,9.77
2023-03-28T08:26:42.244Z,5.37
2023-03-28T08:29:11.705Z,7.83
2023-03-28T08:31:40.747Z,9.47
2023-03-28T08:34:14.188Z,8.23
2023-03-28T08:36:44.373Z,8.07
2023-03-28T08:39:27.456Z,8.83
2023-03-28T08:42:10.672Z,6.70
2023-03-28T08:44:55.646Z,7.37
2023-03-28T08:47:29.652Z,7.07
2023-03-28T08:50:03.099Z,8.00
2023-03-28T08:52:33.101Z,17.20
2023-03-28T08:55:08.832Z,7.03
2023-03-28T08:57:40.172Z,8.33
2023-03-28T09:00:15.482Z,10.97
2023-03-28T09:02:45.336Z,9.23
2023-03-28T09:07:56.240Z,8.73
2023-03-28T09:10:31.379Z,7.93
2023-03-28T09:13:19.707Z,7.70
2023-03-28T09:16:04.507Z,8.07
2023-03-28T09:19:04.702Z,7.57
2023-03-28T09:21:50.086Z,9.07
2023-03-28T09:24:29.996Z,9.10
2023-03-28T09:27:18.186Z,6.97
2023-03-28T09:29:50.513Z,4.37
2023-03-28T09:32:25.555Z,5.17
2023-03-28T09:34:54.530Z,11.13
2023-03-28T09:37:33.876Z,4.90
2023-03-28T09:40:09.105Z,5.87
2023-03-28T09:42:58.075Z,6.60
2023-03-28T09:45:46.000Z,5.63
2023-03-28T09:48:50.499Z,5.03
2023-03-28T09:51:22.356Z,3.30
2023-03-28T09:53:51.340Z,3.43
2023-03-28T09:56:27.726Z,6.50
2023-03-28T09:59:12.121Z,5.43
2023-03-28T10:01:49.323Z,5.00
2023-03-28T10:04:36.481Z,3.93
2023-03-28T10:07:22.369Z,7.23
2023-03-28T10:10:20.982Z,6.00
2023-03-28T10:17:42.409Z,7.93
2023-03-28T10:20:18.026Z,5.57
2023-03-28T10:22:51.528Z,7.03
2023-03-28T10:25:24.690Z,5.27
2023-03-28T10:27:56.597Z,5.90
2023-03-28T10:30:29.562Z,6.17
2023-03-28T10:33:26.547Z,3.70
2023-03-28T10:36:02.971Z,3.37
2023-03-28T10:38:39.520Z,3.60
2023-03-28T10:41:34.094Z,4.53
2023-03-28T10:44:27.292Z,3.57
2023-03-28T10:47:05.095Z,3.83
2023-03-28T10:49:46.333Z,4.17
2023-03-28T10:52:26.964Z,3.10
2023-03-28T10:55:10.045Z,3.90
2023-03-28T10:58:02.242Z,7.07
2023-03-28T11:00:40.182Z,5.60
2023-03-28T11:03:17.388Z,3.53
2023-03-28T11:06:08.771Z,5.63
2023-03-28T11:08:49.871Z,4.73
2023-03-28T11:11:47.626Z,4.63
2023-03-28T11:14:29.995Z,4.37
2023-03-28T11:17:05.760Z,3.03
2023-03-28T11:20:08.895Z,4.70
2023-03-28T11:23:06.276Z,6.40
2023-03-28T11:25:53.874Z,3.47
2023-03-28T11:29:05.068Z,4.60
2023-03-28T11:31:39.328Z,7.73
2023-03-28T11:34:15.652Z,4.43
2023-03-28T11:36:53.604Z,6.60
2023-03-28T11:39:34.736Z,7.30
2023-03-28T11:42:07.842Z,7.47
2023-03-28T11:44:49.268Z,6.40
2023-03-28T11:47:23.835Z,3.87
2023-03-28T11:50:04.264Z,6.80
2023-03-28T11:52:56.718Z,5.07
2023-03-28T11:55:34.787Z,5.67
2023-03-28T11:58:18.606Z,3.73
2023-03-28T12:00:53.985Z,7.43
2023-03-28T12:03:31.562Z,4.97
2023-03-28T12:06:06.740Z,4.50
2023-03-28T12:08:47.538Z,6.00
2023-03-28T12:11:25.740Z,7.63
2023-03-28T12:14:26.538Z,4.77
2023-03-28T12:17:09.887Z,4.47
2023-03-28T12:19:41.482Z,4.43
2023-03-28T12:22:22.172Z,5.07
2023-03-28T12:25:00.437Z,6.10
2023-03-28T12:27:49.398Z,5.70
2023-03-28T12:30:30.097Z,5.43
2023-03-28T12:35:53.051Z,6.40
2023-03-28T12:38:31.807Z,9.50
2023-03-28T12:41:16.381Z,6.33
2023-03-28T12:43:49.870Z,7.20
2023-03-28T12:46:28.289Z,6.33
2023-03-28T12:49:01.239Z,6.93
2023-03-28T12:51:39.012Z,4.23
2023-03-28T12:54:22.832Z,4.90
2023-03-28T12:57:02.722Z,5.23
2023-03-28T12:59:49.388Z,5.40
2023-03-28T13:02:37.918Z,4.73
2023-03-28T13:05:16.224Z,4.77
2023-03-28T13:08:00.443Z,5.20
2023-03-28T13:10:39.735Z,4.63
2023-03-28T13:13:18.042Z,5.37
2023-03-28T13:15:58.985Z,8.87
2023-03-28T13:18:35.844Z,5.00
2023-03-28T13:21:07.411Z,6.50
2023-03-28T13:23:47.938Z,5.90
2023-03-28T13:26:16.422Z,3.87
2023-03-28T13:28:48.071Z,5.17
2023-03-28T13:31:26.360Z,6.87
2023-03-28T13:34:01.770Z,5.80
2023-03-28T13:36:33.578Z,3.07
2023-03-28T13:39:25.414Z,2.93
2023-03-28T13:42:02.158Z,6.40
2023-03-28T13:44:46.136Z,7.83
2023-03-28T13:47:23.451Z,7.40
2023-03-28T13:49:55.588Z,9.07
2023-03-28T13:52:25.680Z,5.57
2023-03-28T13:55:01.757Z,7.60
2023-03-28T13:57:30.502Z,3.60
2023-03-28T14:00:01.515Z,2.87
2023-03-28T14:02:38.847Z,2.60
2023-03-28T14:05:21.386Z,4.83
2023-03-28T14:07:51.656Z,5.47
2023-03-28T14:10:30.186Z,4.70
2023-03-28T14:13:03.530Z,5.10
2023-03-28T14:15:39.310Z,10.30
2023-03-28T14:18:19.404Z,4.27
2023-03-28T14:20:48.289Z,4.97
2023-03-28T14:23:29.795Z,6.57
2023-03-28T14:26:00.540Z,4.43
2023-03-28T14:28:30.827Z,5.13
2023-03-28T14:31:00.341Z,3.47
2023-03-28T14:33:37.398Z,3.73
2023-03-28T14:36:36.708Z,4.03
2023-03-28T14:39:13.830Z,4.37
2023-03-28T14:41:44.664Z,5.83
2023-03-28T14:44:14.538Z,4.90
2023-03-28T14:46:43.653Z,5.87
2023-03-28T14:49:19.658Z,3.63
2023-03-28T14:51:53.917Z,4.67
2023-03-28T14:54:27.847Z,4.03
2023-03-28T14:56:58.506Z,3.50
2023-03-28T14:59:35.460Z,3.83
2023-03-28T15:02:06.493Z,2.63
2023-03-28T15:04:37.475Z,5.90
2023-03-28T15:07:09.130Z,4.40
2023-03-28T15:09:38.311Z,5.27
2023-03-28T15:12:09.230Z,2.87
2023-03-28T15:14:42.790Z,5.67
2023-03-28T15:17:19.110Z,3.30
2023-03-28T15:19:52.804Z,4.00
2023-03-28T15:22:24.905Z,3.17
2023-03-28T15:24:58.196Z,3.77
2023-03-28T15:27:56.146Z,4.23
2023-03-28T15:30:26.369Z,5.13
2023-03-28T15:33:03.173Z,4.17
2023-03-28T15:35:39.273Z,5.37
2023-03-28T15:38:10.197Z,5.70
2023-03-28T15:40:41.944Z,3.87
2023-03-28T15:43:30.520Z,3.37
2023-03-28T15:46:01.046Z,3.93
2023-03-28T15:48:34.844Z,4.97
2023-03-28T15:51:07.740Z,3.97
2023-03-28T15:53:38.641Z,4.80
2023-03-28T15:56:09.990Z,4.77
2023-03-28T15:58:43.384Z,4.47
2023-03-28T16:01:25.600Z,3.33
2023-03-28T16:04:31.223Z,8.00
2023-03-28T16:07:13.018Z,4.13
2023-03-28T16:09:43.407Z,4.37
2023-03-28T16:12:14.797Z,5.60
2023-03-28T16:14:48.907Z,3.37
2023-03-28T16:17:47.349Z,3.40
2023-03-28T16:20:25.551Z,7.17
2023-03-28T16:22:58.861Z,8.07
2023-03-28T16:25:28.281Z,5.13
2023-03-28T16:32:28.607Z,6.70
2023-03-28T16:34:57.143Z,5.87
2023-03-28T16:37:31.924Z,6.63
2023-03-28T16:40:04.093Z,4.60
2023-03-28T16:42:32.989Z,5.20
2023-03-28T16:45:01.952Z,5.83
2023-03-28T16:47:30.796Z,4.63
2023-03-28T16:49:59.326Z,4.80
2023-03-28T16:52:29.736Z,5.13
2023-03-28T16:54:58.895Z,6.87
2023-03-28T16:57:29.518Z,6.87
2023-03-28T16:59:58.569Z,5.77
2023-03-28T17:02:27.598Z,7.77
2023-03-28T17:04:56.546Z,4.77
2023-03-28T17:07:25.840Z,5.77
2023-03-28T17:09:56.712Z,5.03
2023-03-28T17:12:26.325Z,4.70
2023-03-28T17:14:56.595Z,6.07
2023-03-28T17:17:27.990Z,6.33
2023-03-28T17:19:56.858Z,4.40
2023-03-28T17:22:25.771Z,6.30
2023-03-28T17:24:57.367Z,3.87
2023-03-28T17:27:26.433Z,6.37
2023-03-28T17:29:56.730Z,3.83
2023-03-28T17:32:25.899Z,6.20
2023-03-28T17:34:54.797Z,7.03
2023-03-28T17:37:24.469Z,6.07
2023-03-28T17:39:53.545Z,4.47
2023-03-28T17:42:22.864Z,5.10
2023-03-28T17:44:54.804Z,4.73
2023-03-28T17:47:25.768Z,4.43
2023-03-28T17:50:00.634Z,4.60
2023-03-28T17:52:32.185Z,7.17
2023-03-28T17:55:01.489Z,8.23
2023-03-28T17:57:30.582Z,6.47
2023-03-28T18:00:01.469Z,5.30
2023-03-28T18:02:32.088Z,6.93
2023-03-28T18:05:13.373Z,3.57
2023-03-28T18:07:42.470Z,6.60
2023-03-28T18:10:12.184Z,3.50
2023-03-28T18:12:41.031Z,4.17
2023-03-28T18:15:10.456Z,3.73
2023-03-28T18:17:41.402Z,4.73
2023-03-28T18:20:11.029Z,5.00
2023-03-28T18:22:44.039Z,4.93
2023-03-28T18:25:12.933Z,5.67
2023-03-28T18:27:41.874Z,6.53
2023-03-28T18:30:11.505Z,6.17
2023-03-28T18:32:41.915Z,5.23
2023-03-28T18:35:11.842Z,7.60
2023-03-28T18:37:40.791Z,5.03
2023-03-28T18:40:11.392Z,5.40
2023-03-28T18:42:40.226Z,11.37
2023-03-28T18:45:10.182Z,7.30
2023-03-28T18:47:39.636Z,11.23
2023-03-28T18:50:11.840Z,11.57
2023-03-28T18:52:46.148Z,9.23
2023-03-28T18:55:15.137Z,10.23
2023-03-28T18:57:44.920Z,6.97
2023-03-28T19:00:18.138Z,7.93
2023-03-28T19:02:47.321Z,8.20
2023-03-28T19:05:19.273Z,9.07
2023-03-28T19:07:48.716Z,8.57
2023-03-28T19:10:17.618Z,6.10
2023-03-28T19:12:47.177Z,7.47
2023-03-28T19:15:17.102Z,7.70
2023-03-28T19:17:47.006Z,10.27
2023-03-28T19:20:17.498Z,7.77
2023-03-28T19:22:46.784Z,6.97
2023-03-28T19:25:17.715Z,4.97
2023-03-28T19:27:48.536Z,5.07
2023-03-28T19:30:17.435Z,7.03
2023-03-28T19:32:46.599Z,6.40
2023-03-28T19:35:15.296Z,6.83
2023-03-28T19:37:45.485Z,7.37
2023-03-28T19:40:17.485Z,7.20
2023-03-28T19:43:03.882Z,8.47
2023-03-28T19:45:56.661Z,8.13
2023-03-28T19:49:00.496Z,5.70
2023-03-28T19:54:48.612Z,6.47
2023-03-28T19:57:50.008Z,7.17
2023-03-28T20:00:53.409Z,5.70
2023-03-28T20:03:34.043Z,6.07
2023-03-28T20:06:38.414Z,7.20
2023-03-28T20:09:36.336Z,5.77
2023-03-28T20:12:13.414Z,9.07
2023-03-28T20:14:42.792Z,6.17
2023-03-28T20:17:12.155Z,5.47
2023-03-28T20:19:41.152Z,6.63
2023-03-28T20:22:09.984Z,5.20
2023-03-28T20:24:38.868Z,5.33
2023-03-28T20:27:08.101Z,5.37
2023-03-28T20:29:39.217Z,7.70
2023-03-28T20:32:09.929Z,8.43
2023-03-28T20:34:39.434Z,7.23
2023-03-28T20:37:08.420Z,7.17
2023-03-28T20:39:37.306Z,8.30
2023-03-28T20:42:06.875Z,8.97
2023-03-28T20:44:38.326Z,5.73
2023-03-28T20:47:10.778Z,7.73
2023-03-28T20:49:46.646Z,7.63
2023-03-28T20:52:15.723Z,6.70
2023-03-28T20:54:44.706Z,6.83
2023-03-28T20:57:13.493Z,7.47
2023-03-28T20:59:42.807Z,7.10
2023-03-28T21:02:13.281Z,7.23
2023-03-28T21:04:42.782Z,9.27
2023-03-28T21:07:12.967Z,8.20
2023-03-28T21:09:42.057Z,7.90
2023-03-28T21:12:11.017Z,7.80
2023-03-28T21:14:39.656Z,9.43
2023-03-28T21:17:10.032Z,7.33
2023-03-28T21:19:40.165Z,6.67
2023-03-28T21:22:08.908Z,9.77
2023-03-28T21:24:37.767Z,7.53
2023-03-28T21:27:06.724Z,9.47
2023-03-28T21:29:36.053Z,7.70
2023-03-28T21:32:04.891Z,5.97
2023-03-28T21:34:36.989Z,8.17
2023-03-28T21:37:07.171Z,6.43
2023-03-28T21:39:36.029Z,7.73
2023-03-28T21:42:04.934Z,4.90
2023-03-28T21:44:33.607Z,7.07
2023-03-28T21:47:02.506Z,7.63
2023-03-28T21:49:32.951Z,7.07
2023-03-28T21:52:02.121Z,5.57
2023-03-28T21:54:32.768Z,7.00
2023-03-28T21:57:01.681Z,5.20
2023-03-28T22:00:19.079Z,7.30
2023-03-28T22:03:36.727Z,4.80
2023-03-28T22:06:32.225Z,7.30
2023-03-28T22:09:18.211Z,8.50
2023-03-28T22:12:03.124Z,5.97
2023-03-28T22:14:36.874Z,6.83
2023-03-28T22:21:01.771Z,5.10
2023-03-28T22:23:38.222Z,6.40
2023-03-28T22:26:09.557Z,4.00
2023-03-28T22:28:41.355Z,5.10
2023-03-28T22:31:10.458Z,5.93
2023-03-28T22:33:39.353Z,6.10
2023-03-28T22:36:09.112Z,5.03
2023-03-28T22:38:38.084Z,7.23
2023-03-28T22:41:07.837Z,6.37
2023-03-28T22:43:37.638Z,4.50
2023-03-28T22:46:08.432Z,3.90
2023-03-28T22:48:38.386Z,5.87
2023-03-28T22:51:12.010Z,5.67
2023-03-28T22:53:41.565Z,7.03
2023-03-28T22:56:12.608Z,6.97
2023-03-28T22:58:41.720Z,6.37
2023-03-28T23:01:12.362Z,4.33
2023-03-28T23:03:41.136Z,4.33
2023-03-28T23:06:11.000Z,8.77
2023-03-28T23:08:40.262Z,4.90
2023-03-28T23:11:09.312Z,5.03
2023-03-28T23:13:38.218Z,6.87
2023-03-28T23:16:07.953Z,6.93
2023-03-28T23:18:38.623Z,3.90
2023-03-28T23:21:08.932Z,4.30
2023-03-28T23:23:37.803Z,7.63
2023-03-28T23:26:07.237Z,4.27
2023-03-28T23:28:36.655Z,4.83
2023-03-28T23:31:05.997Z,4.17
2023-03-28T23:33:35.076Z,4.93
2023-03-28T23:36:06.547Z,5.93
2023-03-28T23:38:35.480Z,5.20
2023-03-28T23:41:04.473Z,5.23
2023-03-28T23:43:33.348Z,4.27
2023-03-28T23:46:04.340Z,3.80
2023-03-28T23:48:33.258Z,7.60
2023-03-28T23:51:02.873Z,5.97
2023-03-28T23:53:33.236Z,6.20
2023-03-28T23:56:03.594Z,6.60
2023-03-28T23:58:32.312Z,5.43
